createdAt,value
2023-12-20T00:01:56.402Z,7.30
2023-12-20T00:04:27.013Z,7.12
2023-12-20T00:06:57.806Z,7.33
2023-12-20T00:09:28.412Z,7.20
2023-12-20T00:11:59.114Z,7.12
2023-12-20T00:14:29.685Z,7.08
2023-12-20T00:17:00.201Z,6.90
2023-12-20T00:19:30.857Z,6.45
2023-12-20T00:22:02.244Z,7.40
2023-12-20T00:24:32.879Z,6.60
2023-12-20T00:27:03.682Z,6.47
2023-12-20T00:29:34.407Z,6.83
2023-12-20T00:32:05.618Z,6.95
2023-12-20T00:34:36.172Z,6.80
2023-12-20T00:37:07.050Z,6.78
2023-12-20T00:39:37.530Z,6.40
2023-12-20T00:42:10.790Z,6.50
2023-12-20T00:44:43.254Z,7.00
2023-12-20T00:47:14.728Z,7.30
2023-12-20T00:49:45.354Z,7.05
2023-12-20T00:52:16.046Z,7.15
2023-12-20T00:54:47.481Z,6.45
2023-12-20T00:57:19.512Z,7.00
2023-12-20T00:59:50.046Z,7.50
2023-12-20T01:02:20.739Z,7.83
2023-12-20T01:04:53.861Z,7.70
2023-12-20T01:07:24.116Z,7.35
2023-12-20T01:09:54.879Z,7.17
2023-12-20T01:12:26.905Z,7.70
2023-12-20T01:14:57.820Z,7.67
2023-12-20T01:17:29.855Z,6.95
2023-12-20T01:20:00.504Z,6.95
2023-12-20T01:22:32.470Z,7.53
2023-12-20T01:25:04.925Z,7.35
2023-12-20T01:27:36.237Z,7.42
2023-12-20T01:30:08.199Z,7.65
2023-12-20T01:32:39.356Z,7.40
2023-12-20T01:35:12.322Z,7.08
2023-12-20T01:37:43.205Z,7.15
2023-12-20T01:40:14.542Z,7.12
2023-12-20T01:42:45.448Z,7.00
2023-12-20T01:45:15.977Z,6.97
2023-12-20T01:47:46.877Z,6.83
2023-12-20T01:50:18.007Z,6.70
2023-12-20T01:52:48.765Z,6.53
2023-12-20T01:55:22.184Z,7.17
2023-12-20T01:57:54.600Z,7.17
2023-12-20T02:00:27.332Z,7.42
2023-12-20T02:02:58.720Z,6.83
2023-12-20T02:05:34.339Z,6.05
2023-12-20T02:08:06.723Z,5.20
2023-12-20T02:10:37.451Z,4.90
2023-12-20T02:13:09.476Z,3.50
2023-12-20T02:15:41.219Z,2.92
2023-12-20T02:18:16.255Z,3.37
2023-12-20T02:20:47.054Z,2.90
2023-12-20T02:23:17.833Z,2.77
2023-12-20T02:25:52.416Z,3.47
2023-12-20T02:28:26.004Z,3.60
2023-12-20T02:30:57.308Z,4.30
2023-12-20T02:33:27.741Z,5.12
2023-12-20T02:35:59.329Z,5.50
2023-12-20T02:38:29.971Z,6.10
2023-12-20T02:41:00.612Z,6.20
2023-12-20T02:43:31.725Z,6.53
2023-12-20T02:46:06.437Z,6.97
2023-12-20T02:48:37.034Z,6.75
2023-12-20T02:51:08.302Z,6.92
2023-12-20T02:53:40.563Z,6.65
2023-12-20T02:56:12.931Z,6.90
2023-12-20T02:58:43.901Z,7.10
2023-12-20T03:01:16.102Z,7.12
2023-12-20T03:03:47.127Z,7.08
2023-12-20T03:06:21.911Z,6.55
2023-12-20T03:08:52.430Z,6.20
2023-12-20T03:11:22.905Z,6.42
2023-12-20T03:13:57.015Z,5.40
2023-12-20T03:16:28.639Z,5.17
2023-12-20T03:18:59.440Z,4.83
2023-12-20T03:21:29.898Z,5.17
2023-12-20T03:24:01.198Z,4.25
2023-12-20T03:26:31.841Z,4.67
2023-12-20T03:29:02.460Z,3.98
2023-12-20T03:31:33.348Z,4.22
2023-12-20T03:34:03.937Z,3.83
2023-12-20T03:36:35.494Z,3.65
2023-12-20T03:39:06.627Z,4.13
2023-12-20T03:41:38.159Z,4.22
2023-12-20T03:44:08.746Z,3.50
2023-12-20T03:46:40.332Z,3.45
2023-12-20T03:49:11.292Z,4.10
2023-12-20T03:51:43.039Z,3.45
2023-12-20T03:54:13.510Z,3.58
2023-12-20T03:56:44.179Z,3.70
2023-12-20T03:59:15.151Z,3.25
2023-12-20T04:01:46.340Z,3.00
2023-12-20T04:04:17.011Z,3.90
2023-12-20T04:06:47.718Z,3.83
2023-12-20T04:09:18.531Z,3.40
2023-12-20T04:11:49.148Z,3.45
2023-12-20T04:14:19.715Z,3.12
2023-12-20T04:16:50.349Z,3.40
2023-12-20T04:19:20.991Z,2.60
2023-12-20T04:21:55.811Z,2.80
2023-12-20T04:24:27.682Z,2.72
2023-12-20T04:26:58.195Z,2.98
2023-12-20T04:29:29.001Z,2.70
2023-12-20T04:32:00.207Z,2.98
2023-12-20T04:34:30.814Z,3.37
2023-12-20T04:37:03.134Z,2.85
2023-12-20T04:39:34.564Z,2.92
2023-12-20T04:42:05.404Z,3.00
2023-12-20T04:44:35.915Z,3.50
2023-12-20T04:47:06.556Z,3.45
2023-12-20T04:49:40.380Z,3.80
2023-12-20T04:52:14.305Z,3.27
2023-12-20T04:54:45.425Z,3.33
2023-12-20T04:57:19.298Z,3.20
2023-12-20T04:59:49.973Z,3.67
2023-12-20T05:02:21.508Z,3.92
2023-12-20T05:04:55.275Z,3.77
2023-12-20T05:07:24.555Z,4.15
2023-12-20T05:09:55.426Z,3.55
2023-12-20T05:12:26.146Z,3.42
2023-12-20T05:14:56.648Z,3.22
2023-12-20T05:17:27.357Z,3.55
2023-12-20T05:19:57.936Z,3.50
2023-12-20T05:22:29.333Z,3.62
2023-12-20T05:25:06.272Z,2.98
2023-12-20T05:27:32.549Z,3.20
2023-12-20T05:30:03.314Z,2.98
2023-12-20T05:32:33.833Z,2.98
2023-12-20T05:35:04.568Z,2.20
2023-12-20T05:37:35.345Z,2.57
2023-12-20T05:40:08.127Z,2.70
2023-12-20T05:42:39.974Z,2.62
2023-12-20T05:45:13.416Z,2.55
2023-12-20T05:47:44.136Z,2.37
2023-12-20T05:50:14.880Z,2.42
2023-12-20T05:52:45.359Z,2.60
2023-12-20T05:55:16.130Z,2.62
2023-12-20T05:57:47.003Z,2.52
2023-12-20T06:00:19.288Z,2.95
2023-12-20T06:02:49.783Z,3.00
2023-12-20T06:05:21.174Z,2.80
2023-12-20T06:07:52.082Z,3.05
2023-12-20T06:10:23.767Z,2.72
2023-12-20T06:12:55.373Z,3.20
2023-12-20T06:15:25.972Z,2.58
2023-12-20T06:17:56.618Z,2.50
2023-12-20T06:20:27.236Z,3.22
2023-12-20T06:22:57.799Z,2.40
2023-12-20T06:25:29.525Z,2.50
2023-12-20T06:27:59.997Z,2.95
2023-12-20T06:30:30.855Z,2.42
2023-12-20T06:33:02.079Z,2.65
2023-12-20T06:35:36.762Z,3.00
2023-12-20T06:38:06.425Z,3.00
2023-12-20T06:40:37.077Z,3.00
2023-12-20T06:43:16.444Z,2.72
2023-12-20T06:45:43.367Z,2.55
2023-12-20T06:48:14.713Z,2.77
2023-12-20T06:50:46.292Z,2.40
2023-12-20T06:53:18.600Z,2.70
2023-12-20T06:55:50.350Z,2.73
2023-12-20T06:58:21.002Z,3.35
2023-12-20T07:00:52.880Z,3.22
2023-12-20T07:03:23.541Z,3.70
2023-12-20T07:05:54.115Z,3.12
2023-12-20T07:08:24.583Z,2.58
2023-12-20T07:10:56.289Z,2.47
2023-12-20T07:13:27.261Z,3.10
2023-12-20T07:15:58.408Z,2.97
2023-12-20T07:18:29.013Z,2.97
2023-12-20T07:21:00.088Z,3.33
2023-12-20T07:23:31.597Z,2.85
2023-12-20T07:26:02.161Z,3.15
2023-12-20T07:28:32.648Z,2.83
2023-12-20T07:31:04.965Z,3.02
2023-12-20T07:33:39.294Z,2.90
2023-12-20T07:36:09.915Z,2.87
2023-12-20T07:38:43.577Z,3.00
2023-12-20T07:41:14.675Z,2.58
2023-12-20T07:43:46.053Z,2.90
2023-12-20T07:46:16.733Z,2.52
2023-12-20T07:48:47.644Z,3.00
2023-12-20T07:51:18.382Z,2.80
2023-12-20T07:53:49.604Z,2.70
2023-12-20T07:56:21.564Z,2.87
2023-12-20T07:58:53.872Z,2.22
2023-12-20T08:01:24.704Z,2.62
2023-12-20T08:03:58.607Z,2.45
2023-12-20T08:06:29.505Z,2.40
2023-12-20T08:09:04.826Z,2.35
2023-12-20T08:11:33.009Z,2.35
2023-12-20T08:14:03.733Z,2.65
2023-12-20T08:16:34.408Z,2.60
2023-12-20T08:19:05.175Z,2.27
2023-12-20T08:21:38.383Z,2.50
2023-12-20T08:24:10.373Z,2.37
2023-12-20T08:26:41.107Z,2.90
2023-12-20T08:29:11.671Z,3.05
2023-12-20T08:31:44.756Z,2.95
2023-12-20T08:34:16.184Z,3.30
2023-12-20T08:36:48.583Z,2.62
2023-12-20T08:39:23.059Z,2.60
2023-12-20T08:41:53.506Z,2.52
2023-12-20T08:44:24.066Z,2.52
2023-12-20T08:46:54.614Z,2.47
2023-12-20T08:49:26.805Z,2.17
2023-12-20T08:52:00.920Z,2.72
2023-12-20T08:54:31.442Z,2.83
2023-12-20T08:57:02.062Z,2.72
2023-12-20T08:59:32.815Z,2.40
2023-12-20T09:02:03.524Z,2.77
2023-12-20T09:04:36.648Z,2.40
2023-12-20T09:07:09.096Z,2.40
2023-12-20T09:09:39.844Z,3.40
2023-12-20T09:12:10.623Z,2.73
2023-12-20T09:14:41.872Z,2.70
2023-12-20T09:17:13.256Z,2.60
2023-12-20T09:19:46.305Z,3.00
2023-12-20T09:22:17.200Z,2.25
2023-12-20T09:24:47.925Z,2.65
2023-12-20T09:27:18.689Z,3.02
2023-12-20T09:29:51.693Z,2.70
2023-12-20T09:32:22.399Z,2.92
2023-12-20T09:34:53.071Z,2.22
2023-12-20T09:37:25.328Z,2.37
2023-12-20T09:39:57.782Z,2.87
2023-12-20T09:43:00.566Z,2.80
2023-12-20T09:45:33.766Z,2.87
2023-12-20T09:48:07.494Z,2.80
2023-12-20T09:50:38.504Z,3.02
2023-12-20T09:53:12.054Z,2.80
2023-12-20T09:55:43.839Z,3.08
2023-12-20T09:58:15.435Z,2.80
2023-12-20T10:00:47.819Z,2.33
2023-12-20T10:03:20.429Z,2.58
2023-12-20T10:05:54.657Z,2.72
2023-12-20T10:08:26.558Z,2.58
2023-12-20T10:10:59.072Z,2.80
2023-12-20T10:13:30.165Z,3.73
2023-12-20T10:16:02.036Z,2.95
2023-12-20T10:18:38.275Z,3.92
2023-12-20T10:21:05.346Z,3.17
2023-12-20T10:23:37.856Z,3.30
2023-12-20T10:26:08.519Z,2.80
2023-12-20T10:28:39.385Z,2.85
2023-12-20T10:31:10.346Z,2.67
2023-12-20T10:33:45.298Z,2.90
2023-12-20T10:36:15.104Z,3.95
2023-12-20T10:38:48.286Z,2.98
2023-12-20T10:41:21.471Z,2.83
2023-12-20T10:43:53.086Z,2.80
2023-12-20T10:46:24.371Z,2.70
2023-12-20T10:48:59.850Z,3.17
2023-12-20T10:51:31.971Z,2.83
2023-12-20T10:54:03.133Z,3.15
2023-12-20T10:56:36.692Z,3.10
2023-12-20T10:59:13.654Z,3.30
2023-12-20T11:01:44.737Z,3.50
2023-12-20T11:04:18.692Z,3.05
2023-12-20T11:06:56.887Z,2.72
2023-12-20T11:09:32.501Z,2.87
2023-12-20T11:12:22.996Z,3.62
2023-12-20T11:14:57.567Z,3.40
2023-12-20T11:17:29.445Z,3.35
2023-12-20T11:20:03.305Z,3.17
2023-12-20T11:22:38.253Z,3.40
2023-12-20T11:25:12.973Z,3.47
2023-12-20T11:27:48.025Z,3.37
2023-12-20T11:30:20.237Z,3.55
2023-12-20T11:32:52.659Z,3.45
2023-12-20T11:35:25.459Z,3.20
2023-12-20T11:37:56.064Z,3.25
2023-12-20T11:40:26.833Z,3.35
2023-12-20T11:43:01.590Z,3.33
2023-12-20T11:45:33.279Z,3.45
2023-12-20T11:48:04.764Z,3.35
2023-12-20T11:50:35.437Z,3.20
2023-12-20T11:53:09.301Z,3.27
2023-12-20T11:55:40.004Z,3.40
2023-12-20T11:58:10.804Z,3.00
2023-12-20T12:00:41.660Z,2.75
2023-12-20T12:03:12.165Z,2.90
2023-12-20T12:05:42.836Z,3.50
2023-12-20T12:08:14.974Z,2.87
2023-12-20T12:10:47.662Z,3.75
2023-12-20T12:13:18.578Z,3.10
2023-12-20T12:15:51.298Z,3.15
2023-12-20T12:18:21.901Z,2.55
2023-12-20T12:20:54.113Z,3.05
2023-12-20T12:23:29.223Z,2.85
2023-12-20T12:26:03.436Z,3.22
2023-12-20T12:28:36.861Z,3.12
2023-12-20T12:31:08.221Z,3.22
2023-12-20T12:33:41.774Z,3.27
2023-12-20T12:36:16.152Z,3.17
2023-12-20T12:38:46.931Z,2.70
2023-12-20T12:41:17.627Z,3.22
2023-12-20T12:43:49.829Z,3.15
2023-12-20T12:46:21.700Z,3.08
2023-12-20T12:48:52.330Z,3.27
2023-12-20T12:51:24.197Z,3.70
2023-12-20T12:53:55.805Z,3.55
2023-12-20T12:56:29.055Z,3.45
2023-12-20T12:59:01.172Z,3.53
2023-12-20T13:01:31.724Z,3.27
2023-12-20T13:04:04.134Z,3.45
2023-12-20T13:06:46.775Z,3.60
2023-12-20T13:09:17.501Z,3.60
2023-12-20T13:11:48.055Z,3.77
2023-12-20T13:14:21.073Z,3.30
2023-12-20T13:16:51.653Z,3.87
2023-12-20T13:19:24.077Z,4.37
2023-12-20T13:21:56.047Z,3.47
2023-12-20T13:24:26.934Z,2.40
2023-12-20T13:27:02.273Z,2.20
2023-12-20T13:29:32.981Z,2.40
2023-12-20T13:32:04.872Z,2.10
2023-12-20T13:34:35.699Z,7.40
2023-12-20T13:37:08.346Z,2.60
2023-12-20T13:39:40.653Z,1.45
2023-12-20T13:42:11.266Z,1.10
2023-12-20T13:44:42.935Z,1.95
2023-12-20T13:47:16.589Z,1.70
2023-12-20T13:49:50.265Z,1.53
2023-12-20T13:52:31.357Z,1.62
2023-12-20T13:55:02.808Z,1.00
2023-12-20T14:00:12.628Z,1.40
2023-12-20T14:02:45.240Z,1.85
2023-12-20T14:05:19.563Z,1.65
2023-12-20T14:07:51.080Z,1.55
2023-12-20T14:10:22.216Z,1.37
2023-12-20T14:12:53.387Z,1.93
2023-12-20T14:15:25.809Z,1.70
2023-12-20T14:17:56.919Z,1.52
2023-12-20T14:20:31.753Z,1.52
2023-12-20T14:23:03.603Z,1.50
2023-12-20T14:25:42.706Z,1.37
2023-12-20T14:28:08.128Z,1.30
2023-12-20T14:30:39.323Z,1.17
2023-12-20T14:33:11.693Z,1.00
2023-12-20T14:35:45.873Z,1.30
2023-12-20T14:38:16.782Z,1.10
2023-12-20T14:40:48.592Z,0.90
2023-12-20T14:43:19.302Z,1.45
2023-12-20T14:45:50.040Z,1.20
2023-12-20T14:48:22.360Z,1.10
2023-12-20T14:50:53.874Z,1.37
2023-12-20T14:53:24.557Z,1.02
2023-12-20T14:55:55.185Z,1.20
2023-12-20T14:58:25.885Z,1.30
2023-12-20T15:00:57.185Z,1.50
2023-12-20T15:03:28.033Z,1.40
2023-12-20T15:06:01.482Z,1.67
2023-12-20T15:08:32.613Z,1.52
2023-12-20T15:11:04.957Z,1.82
2023-12-20T15:13:35.779Z,1.65
2023-12-20T15:16:07.441Z,1.20
2023-12-20T15:18:38.656Z,1.32
2023-12-20T15:21:09.187Z,1.85
2023-12-20T15:23:42.965Z,2.20
2023-12-20T15:26:13.630Z,1.42
2023-12-20T15:28:44.812Z,1.60
2023-12-20T15:31:16.163Z,1.45
2023-12-20T15:33:48.673Z,1.52
2023-12-20T15:36:19.564Z,1.55
2023-12-20T15:38:50.269Z,1.50
2023-12-20T15:41:26.308Z,1.70
2023-12-20T15:43:56.845Z,1.72
2023-12-20T15:46:27.392Z,1.80
2023-12-20T15:48:59.675Z,1.80
2023-12-20T15:51:30.032Z,1.72
2023-12-20T15:54:02.376Z,1.70
2023-12-20T15:56:32.905Z,1.80
2023-12-20T15:59:04.802Z,1.75
2023-12-20T16:01:37.138Z,1.40
2023-12-20T16:04:07.925Z,1.60
2023-12-20T16:06:38.922Z,1.60
2023-12-20T16:09:11.657Z,1.70
2023-12-20T16:11:43.771Z,1.80
2023-12-20T16:14:18.998Z,2.17
2023-12-20T16:16:50.339Z,1.87
2023-12-20T16:19:21.026Z,1.90
2023-12-20T16:21:51.718Z,1.62
2023-12-20T16:24:24.384Z,1.98
2023-12-20T16:26:54.947Z,1.90
2023-12-20T16:29:25.550Z,2.10
2023-12-20T16:31:56.149Z,1.90
2023-12-20T16:34:57.716Z,2.20
2023-12-20T16:37:27.948Z,2.00
2023-12-20T16:40:03.509Z,2.02
2023-12-20T16:42:34.072Z,1.80
2023-12-20T16:45:05.141Z,1.98
2023-12-20T16:47:37.378Z,2.02
2023-12-20T16:50:10.658Z,1.80
2023-12-20T16:52:42.652Z,2.08
2023-12-20T16:55:13.780Z,2.22
2023-12-20T16:57:45.108Z,1.62
2023-12-20T17:00:17.485Z,2.60
2023-12-20T17:02:48.031Z,2.70
2023-12-20T17:05:19.633Z,2.42
2023-12-20T17:07:51.390Z,2.20
2023-12-20T17:10:23.943Z,3.33
2023-12-20T17:12:55.537Z,2.70
2023-12-20T17:15:26.184Z,3.35
2023-12-20T17:17:58.220Z,3.30
2023-12-20T17:20:30.300Z,3.22
2023-12-20T17:23:01.023Z,3.40
2023-12-20T17:25:33.680Z,3.87
2023-12-20T17:28:10.554Z,2.90
2023-12-20T17:30:40.438Z,3.00
2023-12-20T17:33:12.207Z,3.27
2023-12-20T17:35:42.820Z,3.22
2023-12-20T17:38:13.770Z,2.90
2023-12-20T17:40:44.469Z,2.80
2023-12-20T17:43:15.271Z,2.95
2023-12-20T17:45:47.499Z,3.02
2023-12-20T17:48:25.851Z,2.80
2023-12-20T17:50:58.014Z,3.12
2023-12-20T17:53:30.911Z,3.30
2023-12-20T17:56:01.510Z,3.02
2023-12-20T17:58:32.236Z,3.12
2023-12-20T18:01:04.664Z,2.62
2023-12-20T18:03:35.410Z,2.90
2023-12-20T18:06:07.165Z,3.10
2023-12-20T18:08:38.017Z,2.75
2023-12-20T18:11:14.022Z,3.22
2023-12-20T18:13:46.313Z,3.08
2023-12-20T18:16:18.336Z,2.30
2023-12-20T18:18:50.366Z,2.95
2023-12-20T18:21:21.450Z,2.98
2023-12-20T18:23:57.098Z,2.42
2023-12-20T18:26:25.057Z,2.72
2023-12-20T18:28:57.706Z,2.70
2023-12-20T18:31:30.140Z,2.87
2023-12-20T18:34:01.323Z,2.72
2023-12-20T18:36:33.077Z,2.30
2023-12-20T18:39:05.101Z,3.20
2023-12-20T18:41:36.078Z,3.12
2023-12-20T18:44:06.820Z,2.05
2023-12-20T18:46:37.430Z,3.15
2023-12-20T18:49:11.140Z,2.80
2023-12-20T18:51:42.152Z,2.43
2023-12-20T18:54:12.728Z,2.65
2023-12-20T18:56:43.820Z,2.60
2023-12-20T18:59:16.006Z,3.22
2023-12-20T19:01:48.001Z,3.45
2023-12-20T19:04:20.688Z,2.62
2023-12-20T19:06:54.445Z,2.55
2023-12-20T19:09:25.978Z,2.72
2023-12-20T19:11:56.575Z,3.02
2023-12-20T19:14:32.370Z,2.72
2023-12-20T19:17:03.644Z,3.00
2023-12-20T19:19:34.364Z,3.10
2023-12-20T19:22:06.296Z,2.80
2023-12-20T19:24:39.828Z,2.77
2023-12-20T19:27:11.651Z,2.90
2023-12-20T19:29:43.841Z,2.35
2023-12-20T19:32:14.972Z,3.02
2023-12-20T19:34:46.277Z,2.75
2023-12-20T19:37:19.281Z,2.35
2023-12-20T19:39:54.606Z,2.62
2023-12-20T19:42:26.629Z,2.80
2023-12-20T19:45:02.777Z,3.30
2023-12-20T19:47:33.436Z,2.12
2023-12-20T19:50:05.161Z,2.45
2023-12-20T19:52:37.425Z,2.53
2023-12-20T19:55:11.938Z,2.30
2023-12-20T19:57:43.946Z,2.20
2023-12-20T20:00:18.512Z,2.50
2023-12-20T20:02:50.684Z,2.10
2023-12-20T20:05:22.044Z,2.58
2023-12-20T20:07:54.784Z,2.35
2023-12-20T20:10:26.129Z,2.10
2023-12-20T20:12:58.913Z,2.00
2023-12-20T20:15:30.945Z,3.08
2023-12-20T20:18:02.110Z,2.20
2023-12-20T20:20:34.373Z,2.20
2023-12-20T20:23:07.065Z,2.40
2023-12-20T20:25:40.000Z,2.52
2023-12-20T20:28:10.812Z,2.52
2023-12-20T20:30:41.716Z,3.02
2023-12-20T20:33:13.961Z,2.75
2023-12-20T20:35:45.462Z,2.67
2023-12-20T20:38:19.557Z,2.75
2023-12-20T20:40:52.983Z,2.30
2023-12-20T20:43:27.136Z,2.50
2023-12-20T20:46:00.341Z,2.45
2023-12-20T20:48:36.746Z,2.05
2023-12-20T20:51:05.459Z,1.90
2023-12-20T20:53:36.221Z,2.30
2023-12-20T20:56:07.601Z,2.30
2023-12-20T20:58:38.215Z,2.50
2023-12-20T21:01:09.094Z,2.05
2023-12-20T21:03:41.167Z,2.05
2023-12-20T21:06:14.482Z,2.40
2023-12-20T21:08:45.037Z,2.00
2023-12-20T21:11:17.376Z,1.95
2023-12-20T21:13:54.401Z,2.08
2023-12-20T21:16:27.644Z,2.10
2023-12-20T21:18:57.538Z,1.92
2023-12-20T21:21:28.333Z,2.02
2023-12-20T21:23:59.392Z,1.70
2023-12-20T21:26:31.257Z,1.75
2023-12-20T21:29:01.811Z,1.90
2023-12-20T21:31:32.723Z,1.70
2023-12-20T21:34:05.679Z,2.12
2023-12-20T21:36:39.861Z,2.47
2023-12-20T21:39:11.404Z,1.98
2023-12-20T21:41:42.432Z,2.17
2023-12-20T21:44:14.606Z,2.02
2023-12-20T21:46:47.174Z,2.00
2023-12-20T21:49:18.942Z,1.90
2023-12-20T21:51:49.641Z,2.02
2023-12-20T21:54:23.111Z,2.27
2023-12-20T21:56:56.088Z,2.22
2023-12-20T21:59:27.684Z,2.00
2023-12-20T22:01:58.565Z,2.10
2023-12-20T22:04:29.360Z,2.37
2023-12-20T22:07:00.149Z,2.17
2023-12-20T22:09:31.142Z,2.17
2023-12-20T22:12:03.946Z,2.02
2023-12-20T22:14:34.624Z,2.20
2023-12-20T22:17:05.322Z,1.62
2023-12-20T22:19:35.889Z,1.80
2023-12-20T22:22:07.271Z,1.57
2023-12-20T22:24:37.922Z,1.85
2023-12-20T22:27:09.810Z,2.13
2023-12-20T22:29:40.413Z,1.80
2023-12-20T22:32:11.181Z,1.60
2023-12-20T22:34:42.584Z,1.98
2023-12-20T22:37:14.470Z,1.77
2023-12-20T22:39:46.751Z,1.75
2023-12-20T22:42:18.731Z,1.85
2023-12-20T22:44:51.989Z,1.60
2023-12-20T22:47:26.412Z,1.70
2023-12-20T22:49:57.556Z,1.80
2023-12-20T22:52:28.367Z,1.60
2023-12-20T22:54:59.041Z,1.95
2023-12-20T22:57:29.828Z,1.85
2023-12-20T23:00:01.771Z,1.90
2023-12-20T23:02:34.241Z,2.10
2023-12-20T23:05:07.452Z,2.08
2023-12-20T23:07:39.525Z,2.72
2023-12-20T23:10:12.101Z,2.02
2023-12-20T23:12:42.725Z,2.10
2023-12-20T23:15:14.185Z,2.00
2023-12-20T23:17:44.994Z,2.30
2023-12-20T23:20:15.866Z,3.20
2023-12-20T23:22:47.084Z,9.08
2023-12-20T23:25:17.958Z,17.20
2023-12-20T23:27:50.480Z,19.00
2023-12-20T23:30:21.601Z,9.00
2023-12-20T23:32:52.485Z,4.42
2023-12-20T23:35:23.629Z,4.20
2023-12-20T23:37:54.424Z,4.50
2023-12-20T23:40:29.808Z,3.10
2023-12-20T23:42:59.276Z,2.80
2023-12-20T23:45:29.975Z,3.33
2023-12-20T23:48:00.526Z,2.98
2023-12-20T23:50:31.117Z,3.40
2023-12-20T23:53:01.611Z,4.30
2023-12-20T23:55:32.229Z,4.40
2023-12-20T23:58:04.447Z,3.72
